Time;durP1;ratioP1;P1;durP2;ratioP2;P2;SDS_P1;SDS_P2;PMS_P1;PMS_P2;Temp;Humidity;BMP_temperature;BMP_pressure;BME280_temperature;BME280_humidity;BME280_pressure;Samples;Min_cycle;Max_cycle;Signal;HPM_P1;HPM_P2
2021/07/30 00:00:44;;;;;;;26.90;13.23;;;;;;;20.36;85.09;100115.51;125262;1102;104376;-77
2021/07/30 00:03:26;;;;;;;27.33;13.73;;;;;;;20.37;85.76;100114.62;125350;1102;104376;-78
2021/07/30 00:05:56;;;;;;;30.83;14.07;;;;;;;20.35;84.83;100118.19;125258;1102;104297;-78
2021/07/30 00:08:28;;;;;;;27.37;13.97;;;;;;;20.33;84.82;100123.53;125284;1102;104361;-77
2021/07/30 00:10:59;;;;;;;24.80;12.90;;;;;;;20.31;84.69;100125.34;125274;1102;104156;-77
2021/07/30 00:13:30;;;;;;;26.37;14.17;;;;;;;20.30;85.31;100110.24;125325;1102;104156;-79
2021/07/30 00:16:04;;;;;;;23.90;13.00;;;;;;;20.28;84.68;100115.58;125269;1102;104192;-79
2021/07/30 00:18:35;;;;;;;23.55;11.80;;;;;;;20.32;85.32;100119.13;125293;1102;104181;-78
2021/07/30 00:21:07;;;;;;;27.53;13.13;;;;;;;20.34;85.62;100116.44;125269;1102;104281;-78
2021/07/30 00:23:38;;;;;;;22.23;10.83;;;;;;;20.35;85.21;100112.86;125283;1102;104303;-78
2021/07/30 00:26:09;;;;;;;25.43;12.13;;;;;;;20.38;85.17;100124.39;125225;1102;104302;-78
2021/07/30 00:28:41;;;;;;;25.60;10.97;;;;;;;20.43;85.90;100119.88;125275;1099;104297;-77
2021/07/30 00:31:12;;;;;;;24.47;9.63;;;;;;;20.40;85.26;100122.58;125283;1102;104332;-78
2021/07/30 00:33:43;;;;;;;20.40;9.80;;;;;;;20.34;85.75;100122.64;125299;1099;104155;-78
2021/07/30 00:36:14;;;;;;;19.83;9.23;;;;;;;20.31;84.98;100120.02;125214;1099;104297;-79
2021/07/30 00:38:48;;;;;;;20.00;9.13;;;;;;;20.33;84.92;100120.86;125270;1102;104152;-78
2021/07/30 00:41:18;;;;;;;;;;;;;;;20.29;84.17;100124.48;125339;1102;104191;-79
2021/07/30 00:43:48;;;;;;;19.07;9.70;;;;;;;20.24;85.67;100120.95;125259;1102;104259;-78
2021/07/30 00:46:22;;;;;;;19.10;8.60;;;;;;;20.20;85.81;100116.58;125239;1102;104304;-79
2021/07/30 00:48:57;;;;;;;18.52;8.80;;;;;;;20.18;86.53;100118.35;125187;1102;104258;-79
2021/07/30 00:51:29;;;;;;;19.23;8.83;;;;;;;20.12;85.55;100119.31;125316;1099;104597;-78
2021/07/30 00:54:03;;;;;;;19.17;8.77;;;;;;;20.10;85.75;100124.66;125263;1102;104326;-78
2021/07/30 00:56:35;;;;;;;21.52;9.10;;;;;;;20.07;85.85;100124.69;125227;1099;104313;-77
2021/07/30 00:59:08;;;;;;;18.67;9.10;;;;;;;20.05;86.38;100128.25;125307;1102;104416;-78
2021/07/30 01:01:40;;;;;;;17.70;8.85;;;;;;;20.06;85.36;100128.23;125227;1102;104184;-78
2021/07/30 01:04:12;;;;;;;16.00;8.47;;;;;;;20.04;85.39;100130.04;125292;1102;104239;-78
2021/07/30 01:06:45;;;;;;;16.83;8.63;;;;;;;20.04;85.44;100127.38;125246;1102;104146;-78
2021/07/30 01:09:19;;;;;;;18.33;9.07;;;;;;;20.03;86.14;100130.92;125348;1102;104596;-78
2021/07/30 01:11:52;;;;;;;21.63;9.93;;;;;;;20.02;85.74;100129.15;125302;1100;104195;-78
2021/07/30 01:14:24;;;;;;;20.23;9.48;;;;;;;20.03;86.21;100135.38;126266;1099;104232;-78
2021/07/30 01:16:57;;;;;;;19.53;10.03;;;;;;;20.00;85.65;100127.42;126225;1099;104190;-79
2021/07/30 01:19:30;;;;;;;20.72;9.90;;;;;;;20.03;86.63;100136.25;126341;1099;104243;-79
2021/07/30 01:22:11;;;;;;;23.73;10.10;;;;;;;20.04;85.60;100122.05;126330;1099;104214;-78
2021/07/30 01:24:45;;;;;;;21.67;10.53;;;;;;;20.03;86.03;100125.60;126311;1099;104233;-78
2021/07/30 01:27:22;;;;;;;21.20;10.23;;;;;;;20.04;86.50;100123.81;126260;1099;104146;-78
2021/07/30 01:29:54;;;;;;;20.73;10.70;;;;;;;20.03;85.87;100125.60;126295;1099;104159;-78
2021/07/30 01:32:26;;;;;;;20.67;10.20;;;;;;;20.02;86.54;100125.61;126279;1099;104191;-78
2021/07/30 01:34:58;;;;;;;22.10;9.87;;;;;;;20.02;86.04;100122.95;126365;1098;104171;-79
2021/07/30 01:37:29;;;;;;;26.00;10.73;;;;;;;20.00;87.03;100119.43;126288;1099;105668;-78
2021/07/30 01:40:00;;;;;;;22.83;10.33;;;;;;;19.99;86.81;100118.56;126296;1099;105232;-79
2021/07/30 01:42:31;;;;;;;22.57;10.60;;;;;;;19.96;86.74;100115.92;126330;1099;104152;-78
2021/07/30 01:45:02;;;;;;;23.93;11.27;;;;;;;19.93;86.51;100115.95;126348;1099;104213;-78
2021/07/30 01:47:34;;;;;;;19.30;10.53;;;;;;;19.92;86.17;100124.82;126280;1098;104201;-79
2021/07/30 01:50:06;;;;;;;23.13;10.87;;;;;;;19.89;86.46;100119.52;126287;1099;104201;-78
2021/07/30 01:52:36;;;;;;;21.97;10.07;;;;;;;19.90;87.12;100121.30;126323;1099;105308;-78
2021/07/30 01:55:08;;;;;;;22.50;10.53;;;;;;;19.88;86.74;100123.07;126335;1098;104139;-78
2021/07/30 01:57:40;;;;;;;23.73;11.20;;;;;;;19.86;86.79;100120.42;126277;1097;105580;-78
2021/07/30 02:00:12;;;;;;;22.63;11.07;;;;;;;19.84;86.55;100124.88;126323;1099;104171;-78
2021/07/30 02:02:45;;;;;;;24.87;11.30;;;;;;;19.84;86.66;100124.02;126318;1099;104264;-79
2021/07/30 02:05:16;;;;;;;21.43;11.17;;;;;;;19.82;86.24;100128.45;126328;1099;104146;-79
2021/07/30 02:07:48;;;;;;;26.47;12.47;;;;;;;19.83;87.19;100119.58;126228;1099;104192;-78
2021/07/30 02:10:19;;;;;;;23.97;12.00;;;;;;;19.83;86.80;100124.90;126254;1099;104194;-78
2021/07/30 02:15:32;;;;;;;23.33;12.13;;;;;;;19.83;86.83;100125.77;126327;1099;104280;-77
2021/07/30 02:18:02;;;;;;;26.47;12.00;;;;;;;19.84;86.51;100126.67;126265;1099;104267;-79
2021/07/30 02:20:33;;;;;;;24.70;12.13;;;;;;;19.87;87.23;100132.84;126327;1099;104229;-78
2021/07/30 02:23:04;;;;;;;23.47;11.47;;;;;;;19.85;86.87;100126.66;126315;1099;104262;-77
2021/07/30 02:25:34;;;;;;;21.97;11.07;;;;;;;19.85;87.01;100129.33;126325;1099;104185;-78
2021/07/30 02:28:05;;;;;;;22.03;10.83;;;;;;;19.83;87.26;100127.56;126256;1099;104229;-77
2021/07/30 02:30:36;;;;;;;21.87;10.57;;;;;;;19.82;87.28;100131.11;126306;1099;107875;-79
2021/07/30 02:33:07;;;;;;;22.60;11.43;;;;;;;19.79;87.27;100128.47;126330;1099;104149;-79
2021/07/30 02:35:41;;;;;;;20.97;11.13;;;;;;;19.77;87.27;100136.47;126329;1099;104169;-79
2021/07/30 02:38:11;;;;;;;24.77;11.77;;;;;;;19.76;87.51;100140.02;126357;1097;104248;-79
2021/07/30 02:40:45;;;;;;;23.57;11.27;;;;;;;19.75;87.32;100133.78;126263;1099;104140;-78
2021/07/30 02:43:18;;;;;;;25.03;11.93;;;;;;;19.77;87.47;100136.47;126306;1099;104258;-78
2021/07/30 02:45:48;;;;;;;;;;;;;;;19.75;87.21;100140.90;126393;1099;104159;-78
2021/07/30 02:48:19;;;;;;;23.63;10.87;;;;;;;19.74;87.37;100145.34;126329;1099;104261;-78
2021/07/30 02:50:53;;;;;;;23.03;10.53;;;;;;;19.74;87.01;100145.34;126271;1098;104204;-78
2021/07/30 02:53:24;;;;;;;21.67;11.03;;;;;;;19.77;88.01;100154.23;126300;1099;104172;-78
2021/07/30 02:55:57;;;;;;;22.37;11.15;;;;;;;19.78;87.75;100151.55;126155;1099;104229;-79
2021/07/30 02:58:31;;;;;;;20.27;11.00;;;;;;;19.79;88.20;100157.75;126205;1098;104768;-79
2021/07/30 03:01:03;;;;;;;23.43;11.50;;;;;;;19.81;87.80;100163.97;126146;1099;104313;-79
2021/07/30 03:03:34;;;;;;;23.70;10.87;;;;;;;19.82;88.30;100160.39;126186;1099;104194;-79
2021/07/30 03:06:04;;;;;;;21.60;11.07;;;;;;;19.86;87.86;100167.47;126191;1099;104270;-78
2021/07/30 03:08:35;;;;;;;25.43;12.20;;;;;;;19.88;87.63;100157.68;126141;1098;104152;-78
2021/07/30 03:11:06;;;;;;;21.17;10.70;;;;;;;19.92;88.54;100151.45;126172;1099;104144;-78
2021/07/30 03:13:38;;;;;;;25.10;12.03;;;;;;;19.95;87.82;100167.41;126208;1099;104200;-78
2021/07/30 03:16:11;;;;;;;23.23;11.53;;;;;;;19.96;87.58;100169.18;126201;1099;104139;-79
2021/07/30 03:18:44;;;;;;;25.10;12.40;;;;;;;19.96;87.69;100163.85;126231;1099;104201;-78
2021/07/30 03:21:15;;;;;;;24.00;11.93;;;;;;;20.00;88.16;100172.69;126139;1099;104239;-79
2021/07/30 03:23:45;;;;;;;23.77;11.63;;;;;;;20.03;87.62;100170.00;126203;1099;104181;-79
2021/07/30 03:26:16;;;;;;;22.47;12.43;;;;;;;20.07;87.97;100174.38;126251;1099;104139;-79
2021/07/30 03:28:50;;;;;;;22.83;11.90;;;;;;;20.11;88.12;100174.34;126255;1099;104191;-78
2021/07/30 03:31:20;;;;;;;25.60;12.23;;;;;;;20.14;87.79;100170.78;126243;1099;104673;-80
2021/07/30 03:33:54;;;;;;;24.50;13.33;;;;;;;20.20;87.86;100178.72;126328;1099;104149;-78
2021/07/30 03:36:25;;;;;;;24.27;12.17;;;;;;;20.22;87.83;100176.05;126313;1099;104213;-79
2021/07/30 03:38:56;;;;;;;28.33;13.47;;;;;;;20.24;88.17;100176.91;126291;1099;104149;-79
2021/07/30 03:41:26;;;;;;;33.23;13.37;;;;;;;20.28;87.67;100175.98;126277;1099;104332;-78
2021/07/30 03:43:57;;;;;;;25.70;13.10;;;;;;;20.32;87.46;100177.73;126349;1099;104146;-79
2021/07/30 03:46:28;;;;;;;24.70;13.27;;;;;;;20.38;88.70;100183.02;126297;1099;104293;-78
2021/07/30 03:49:01;;;;;;;25.03;13.67;;;;;;;20.42;88.64;100183.86;126332;1099;104287;-79
2021/07/30 03:51:32;;;;;;;26.93;13.17;;;;;;;20.45;88.67;100181.16;126214;1099;104191;-79
2021/07/30 03:54:06;;;;;;;21.97;12.20;;;;;;;20.50;88.54;100183.78;126350;1099;104272;-79
2021/07/30 03:56:38;;;;;;;;;;;;;;;20.55;87.66;100185.48;126221;1099;104300;-79
2021/07/30 03:59:09;;;;;;;22.33;12.00;;;;;;;20.61;88.34;100195.20;125408;1099;104304;-79
2021/07/30 04:01:47;;;;;;;26.27;12.57;;;;;;;20.63;88.82;100188.97;126187;1099;104156;-78
2021/07/30 04:04:18;;;;;;;23.43;12.67;;;;;;;20.64;88.76;100189.84;126186;1099;104367;-78
2021/07/30 04:06:49;;;;;;;21.70;12.87;;;;;;;20.67;88.93;100194.30;126210;1099;104399;-78
2021/07/30 04:09:21;;;;;;;25.60;13.20;;;;;;;20.68;88.90;100199.62;126237;1099;104204;-77
2021/07/30 04:11:51;;;;;;;25.77;12.97;;;;;;;20.70;88.46;100204.94;126139;1098;104446;-78
2021/07/30 04:14:23;;;;;;;25.90;12.60;;;;;;;20.73;88.93;100199.57;126214;1099;104397;-77
2021/07/30 04:16:54;;;;;;;26.37;12.53;;;;;;;20.76;89.20;100203.08;126209;1099;104278;-78
2021/07/30 04:19:25;;;;;;;23.27;12.83;;;;;;;20.79;88.03;100196.84;126147;1099;104179;-77
2021/07/30 04:21:56;;;;;;;21.03;12.00;;;;;;;20.85;88.61;100195.86;126187;1098;104840;-77
2021/07/30 04:24:26;;;;;;;27.87;12.70;;;;;;;20.87;88.73;100194.09;126151;1099;104656;-77
2021/07/30 04:26:57;;;;;;;25.77;13.67;;;;;;;20.92;88.48;100195.77;126188;1099;104284;-77
2021/07/30 04:29:28;;;;;;;20.30;12.20;;;;;;;20.99;88.70;100196.61;126309;1099;104140;-78
2021/07/30 04:31:59;;;;;;;23.67;12.37;;;;;;;21.03;88.83;100195.65;126188;1099;104198;-78
2021/07/30 04:34:31;;;;;;;24.95;12.75;;;;;;;21.07;89.22;100197.39;126043;1098;104259;-76
2021/07/30 04:37:02;;;;;;;24.23;13.40;;;;;;;21.08;88.45;100191.13;126157;1099;104158;-77
2021/07/30 04:39:33;;;;;;;22.63;12.27;;;;;;;21.12;88.87;100187.53;126247;1098;104640;-77
2021/07/30 04:42:04;;;;;;;22.00;12.87;;;;;;;21.16;89.29;100186.61;126255;1099;104143;-76
2021/07/30 04:44:37;;;;;;;25.50;12.50;;;;;;;21.24;88.74;100188.27;126304;1099;104194;-78
2021/07/30 04:47:09;;;;;;;25.35;12.45;;;;;;;21.28;88.47;100188.21;126142;1099;104261;-78
2021/07/30 04:49:39;;;;;;;22.13;12.30;;;;;;;21.34;89.24;100198.80;126238;1099;104136;-78
2021/07/30 04:52:10;;;;;;;26.07;13.17;;;;;;;21.40;88.26;100192.52;126225;1099;104181;-78
2021/07/30 04:54:41;;;;;;;23.40;13.37;;;;;;;21.46;88.57;100180.88;126191;1099;104171;-78
2021/07/30 04:57:12;;;;;;;23.63;13.33;;;;;;;21.50;89.07;100193.30;126134;1098;104242;-78
2021/07/30 04:59:41;;;;;;;21.50;11.80;;;;;;;;;;126179;1099;104197;-77
2021/07/30 05:02:16;;;;;;;22.17;11.93;;;;;;;21.64;88.61;100195.77;126075;1099;104172;-78
2021/07/30 05:04:49;;;;;;;23.07;13.73;;;;;;;21.68;88.52;100192.16;126165;1099;104280;-78
2021/07/30 05:07:22;;;;;;;23.67;13.27;;;;;;;21.70;88.89;100201.02;126183;1099;104166;-76
2021/07/30 05:09:54;;;;;;;27.77;13.17;;;;;;;21.72;88.68;100200.10;126132;1099;104245;-78
2021/07/30 05:12:24;;;;;;;25.07;12.73;;;;;;;21.78;88.70;100206.25;126192;1098;104172;-78
2021/07/30 05:14:55;;;;;;;24.60;12.87;;;;;;;21.83;88.48;100205.28;126173;1099;104159;-77
2021/07/30 05:17:26;;;;;;;23.30;13.67;;;;;;;21.88;88.51;100211.42;126202;1099;104197;-78
2021/07/30 05:19:57;;;;;;;26.03;14.27;;;;;;;21.94;88.90;100209.55;126062;1099;104203;-79
2021/07/30 05:22:30;;;;;;;29.07;14.43;;;;;;;21.98;88.69;100209.48;126024;1099;104178;-78
2021/07/30 05:25:03;;;;;;;24.97;13.53;;;;;;;22.02;88.89;100213.88;126213;1099;104252;-79
2021/07/30 05:27:36;;;;;;;24.50;14.05;;;;;;;22.06;88.17;100207.59;126112;1099;104198;-78
2021/07/30 05:30:07;;;;;;;24.57;14.07;;;;;;;22.10;88.87;100211.09;126058;1099;104241;-78
2021/07/30 05:32:41;;;;;;;27.83;14.13;;;;;;;22.15;87.72;100203.00;126034;1099;104166;-80
2021/07/30 05:35:14;;;;;;;28.30;14.07;;;;;;;22.18;88.40;100198.47;126131;1099;104272;-79
2021/07/30 05:37:47;;;;;;;25.82;14.20;;;;;;;22.21;88.58;100198.42;126202;1099;104268;-79
2021/07/30 05:40:22;;;;;;;22.73;13.57;;;;;;;22.26;88.23;100203.69;126189;1099;104210;-80
2021/07/30 05:42:56;;;;;;;23.20;13.53;;;;;;;22.32;88.42;100205.42;126166;1099;104149;-81
2021/07/30 05:45:28;;;;;;;24.90;13.30;;;;;;;22.36;88.15;100212.45;126159;1099;104252;-79
2021/07/30 05:48:01;;;;;;;24.17;14.20;;;;;;;22.40;88.03;100208.83;126115;1099;104168;-78
2021/07/30 05:50:34;;;;;;;23.73;13.90;;;;;;;22.43;88.02;100204.30;126062;1099;104255;-80
2021/07/30 05:53:08;;;;;;;25.97;14.10;;;;;;;22.51;88.75;100208.64;125905;1099;104332;-80
2021/07/30 05:55:44;;;;;;;28.87;15.63;;;;;;;22.60;88.55;100211.14;125823;1099;103491;-79
2021/07/30 05:58:22;;;;;;;23.17;14.07;;;;;;;22.67;88.26;100212.77;125838;1099;104325;-80
2021/07/30 06:00:59;;;;;;;23.43;13.60;;;;;;;22.76;88.25;100223.30;125985;1099;104321;-81
2021/07/30 06:03:35;;;;;;;24.73;13.93;;;;;;;22.83;88.71;100218.73;126140;1099;104217;-80
2021/07/30 06:06:38;;;;;;;25.10;14.73;;;;;;;22.88;87.67;100210.63;125974;1099;104136;-79
2021/07/30 06:12:26;;;;;;;25.97;14.67;;;;;;;23.03;88.42;100215.67;125635;1099;104389;-79
2021/07/30 06:15:03;;;;;;;27.70;13.67;;;;;;;23.10;87.90;100214.65;126063;1099;104293;-82
2021/07/30 06:17:45;;;;;;;23.93;13.77;;;;;;;23.17;87.87;100210.08;126012;1099;104191;-80
2021/07/30 06:20:21;;;;;;;27.40;13.63;;;;;;;23.24;88.14;100213.49;126000;1099;104322;-79
2021/07/30 06:22:54;;;;;;;23.33;13.03;;;;;;;23.31;88.00;100210.66;126027;1099;104204;-80
2021/07/30 06:25:41;;;;;;;26.43;14.27;;;;;;;23.39;87.83;100207.81;126150;1099;111595;-82
2021/07/30 06:28:18;;;;;;;21.97;13.47;;;;;;;23.46;88.15;100214.78;125983;1099;104246;-82
2021/07/30 06:30:56;;;;;;;26.90;14.50;;;;;;;23.55;88.00;100213.70;126088;1099;104172;-80
2021/07/30 06:33:38;;;;;;;25.20;13.20;;;;;;;23.62;87.86;100215.34;126212;1099;104173;-83
2021/07/30 06:36:22;;;;;;;24.43;13.70;;;;;;;23.69;87.66;100213.39;126013;1099;104175;-80
2021/07/30 06:38:59;;;;;;;22.87;13.17;;;;;;;23.78;87.77;100206.92;126028;1099;104139;-82
2021/07/30 06:41:34;;;;;;;27.03;14.20;;;;;;;23.88;87.88;100210.32;126154;1099;104273;-82
2021/07/30 06:44:14;;;;;;;24.70;13.53;;;;;;;23.96;87.48;100213.69;126004;1099;102686;-80
2021/07/30 06:46:51;;;;;;;26.47;13.70;;;;;;;24.04;87.94;100211.69;125856;1099;104143;-82
2021/07/30 06:49:31;;;;;;;25.17;14.93;;;;;;;24.15;87.90;100206.06;125987;1099;104224;-78
2021/07/30 06:52:09;;;;;;;22.53;13.83;;;;;;;24.28;87.70;100210.21;125939;1099;104290;-81
2021/07/30 06:54:44;;;;;;;24.00;13.90;;;;;;;24.37;87.89;100212.66;125855;1099;104233;-80
2021/07/30 06:57:20;;;;;;;25.43;14.30;;;;;;;24.50;87.88;100212.34;125946;1099;104245;-80
2021/07/30 06:59:59;;;;;;;21.70;13.30;;;;;;;24.64;87.35;100217.38;125812;1099;104156;-81
2021/07/30 07:02:46;;;;;;;25.17;14.27;;;;;;;24.73;87.10;100215.31;125933;1099;104166;-79
2021/07/30 07:05:27;;;;;;;27.83;13.93;;;;;;;24.89;86.93;100215.76;126079;1099;104336;-81
2021/07/30 07:08:14;;;;;;;24.13;13.57;;;;;;;24.99;86.29;100213.69;126136;1099;104139;-79
2021/07/30 07:11:04;;;;;;;22.20;12.85;;;;;;;25.12;86.30;100208.88;126169;1099;104129;-80
2021/07/30 07:13:41;;;;;;;22.00;12.70;;;;;;;25.25;85.73;100214.75;126170;1099;104309;-79
2021/07/30 07:16:19;;;;;;;20.00;11.07;;;;;;;25.35;85.10;100213.56;126204;1099;105559;-80
2021/07/30 07:18:54;;;;;;;18.50;11.60;;;;;;;25.42;84.75;100215.16;126123;1099;104631;-79
2021/07/30 07:21:28;;;;;;;17.70;11.60;;;;;;;25.55;84.78;100212.96;126211;1099;105524;-79
2021/07/30 07:24:03;;;;;;;19.87;11.60;;;;;;;25.70;84.49;100213.44;126085;1099;104246;-78
2021/07/30 07:26:40;;;;;;;20.20;11.83;;;;;;;25.85;84.38;100215.61;126217;1099;104291;-80
2021/07/30 07:29:18;;;;;;;19.73;10.50;;;;;;;26.01;84.14;100222.29;126226;1099;104146;-80
2021/07/30 07:32:00;;;;;;;16.50;10.20;;;;;;;26.18;82.90;100207.42;126205;1099;104216;-82
2021/07/30 07:34:33;;;;;;;16.95;10.50;;;;;;;26.31;80.25;100214.13;125318;1099;104267;-80
2021/07/30 07:37:06;;;;;;;18.53;11.03;;;;;;;26.44;80.84;100211.89;126242;1099;104143;-81
2021/07/30 07:39:42;;;;;;;17.47;10.40;;;;;;;26.58;81.76;100213.23;125960;1099;104140;-79
2021/07/30 07:45:10;;;;;;;19.17;11.37;;;;;;;26.79;79.81;100220.58;125222;1102;104447;-80
2021/07/30 07:47:45;;;;;;;18.80;10.50;;;;;;;26.90;79.86;100225.58;125938;1099;104373;-79
2021/07/30 07:50:38;;;;;;;19.53;10.53;;;;;;;26.99;79.55;100222.55;125874;1099;104242;-80
2021/07/30 07:53:21;;;;;;;17.80;9.73;;;;;;;27.11;77.83;100223.89;125437;1099;104146;-79
2021/07/30 07:56:19;;;;;;;19.57;10.63;;;;;;;27.17;77.29;100220.97;125931;1099;104243;-80
2021/07/30 07:59:13;;;;;;;15.93;9.03;;;;;;;27.32;74.36;100229.45;125368;1099;110656;-79
2021/07/30 08:01:57;;;;;;;16.27;9.30;;;;;;;27.43;76.05;100230.78;125330;1099;104178;-82
2021/07/30 08:04:32;;;;;;;19.40;9.83;;;;;;;27.61;74.95;100226.51;125368;1099;104827;-80
2021/07/30 08:07:09;;;;;;;15.97;10.13;;;;;;;27.77;74.71;100220.52;125105;1102;104287;-81
2021/07/30 08:09:47;;;;;;;18.25;10.05;;;;;;;28.03;75.19;100222.16;125147;1102;104175;-82
2021/07/30 08:12:22;;;;;;;15.57;9.73;;;;;;;28.12;74.98;100219.08;125122;1102;104233;-80
2021/07/30 08:14:58;;;;;;;17.33;9.53;;;;;;;28.24;74.18;100224.92;125216;1102;104313;-81
2021/07/30 08:17:32;;;;;;;17.80;9.45;;;;;;;28.38;74.74;100219.81;125059;1102;104153;-81
2021/07/30 08:20:10;;;;;;;16.97;9.03;;;;;;;28.48;72.44;100217.59;125088;1102;104303;-80
2021/07/30 08:22:53;;;;;;;15.00;8.93;;;;;;;28.46;70.79;100225.75;125169;1102;104182;-80
2021/07/30 08:25:28;;;;;;;16.82;9.20;;;;;;;28.48;70.68;100222.98;125091;1102;104252;-80
2021/07/30 08:28:06;;;;;;;21.07;9.80;;;;;;;28.59;69.71;100226.12;125265;1099;104360;-78
2021/07/30 08:30:49;;;;;;;16.03;9.17;;;;;;;28.74;70.73;100226.41;125381;1099;104334;-80
2021/07/30 08:33:26;;;;;;;15.17;8.97;;;;;;;28.88;69.48;100220.41;126006;1099;104152;-79
2021/07/30 08:36:10;;;;;;;16.30;10.17;;;;;;;28.99;69.08;100224.36;125371;1099;104395;-79
2021/07/30 08:39:05;;;;;;;15.30;9.37;;;;;;;29.17;69.40;100222.65;125228;1099;104695;-79
2021/07/30 08:41:48;;;;;;;16.03;8.70;;;;;;;29.30;68.67;100219.42;125800;1099;104406;-80
2021/07/30 08:44:22;;;;;;;15.77;8.63;;;;;;;29.28;65.29;100229.39;126134;1099;104322;-79
2021/07/30 08:47:00;;;;;;;13.93;8.50;;;;;;;29.28;64.37;100230.30;126257;1099;104156;-79
2021/07/30 08:49:38;;;;;;;14.57;9.00;;;;;;;29.33;63.65;100222.84;126144;1099;104153;-80
2021/07/30 08:52:20;;;;;;;14.37;9.03;;;;;;;29.33;63.67;100222.84;126263;1098;104143;-82
2021/07/30 08:54:58;;;;;;;13.17;8.70;;;;;;;29.42;63.89;100212.54;126201;1099;104191;-79
2021/07/30 08:57:30;;;;;;;15.13;9.13;;;;;;;29.34;61.74;100212.90;126260;1099;104149;-78
2021/07/30 09:00:14;;;;;;;13.77;8.87;;;;;;;29.37;61.64;100213.66;126151;1099;104306;-78
2021/07/30 09:02:47;;;;;;;16.43;8.80;;;;;;;29.32;61.44;100207.56;126106;1098;104178;-81
2021/07/30 09:05:32;;;;;;;17.35;9.33;;;;;;;29.41;61.84;100200.86;125953;1099;104169;-80
2021/07/30 09:08:04;;;;;;;11.50;7.93;;;;;;;29.33;58.91;100203.92;125915;1099;104169;-79
2021/07/30 09:10:47;;;;;;;16.83;8.27;;;;;;;29.35;58.86;100199.31;125935;1099;118233;-79
2021/07/30 09:13:29;;;;;;;14.27;8.57;;;;;;;29.37;58.10;100210.95;125885;1099;104358;-80
2021/07/30 09:16:13;;;;;;;16.60;9.10;;;;;;;29.53;58.50;100210.19;126070;1099;104318;-79
2021/07/30 09:18:51;;;;;;;17.03;8.63;;;;;;;29.63;58.67;100192.59;126166;1099;104176;-77
2021/07/30 09:21:33;;;;;;;14.60;8.30;;;;;;;29.76;58.96;100192.86;126277;1099;104136;-77
2021/07/30 09:24:09;;;;;;;14.00;8.10;;;;;;;29.74;57.85;100189.37;126225;1098;104156;-79
2021/07/30 09:26:46;;;;;;;14.77;8.00;;;;;;;29.76;58.19;100190.16;126082;1099;104309;-78
2021/07/30 09:29:27;;;;;;;16.67;8.87;;;;;;;29.77;57.37;100191.92;126017;1099;104332;-80
2021/07/30 09:32:04;;;;;;;14.53;9.00;;;;;;;29.83;57.31;100188.08;126079;1099;104265;-80
2021/07/30 09:34:43;;;;;;;15.33;9.00;;;;;;;29.82;57.97;100194.44;126114;1099;104150;-80
2021/07/30 09:37:26;;;;;;;17.13;9.90;;;;;;;29.86;57.96;100185.23;126205;1099;104258;-79
2021/07/30 09:40:02;;;;;;;14.83;8.77;;;;;;;30.02;57.64;100194.31;125945;1099;104367;-80
2021/07/30 09:42:36;;;;;;;17.87;8.83;;;;;;;30.09;56.51;100184.95;126030;1099;104163;-80
2021/07/30 09:45:14;;;;;;;13.63;8.90;;;;;;;30.18;56.76;100180.02;125372;1102;104619;-80
2021/07/30 09:47:54;;;;;;;15.90;8.50;;;;;;;30.18;56.44;100186.29;126116;1099;104287;-80
2021/07/30 09:50:28;;;;;;;14.53;8.73;;;;;;;30.15;55.99;100177.46;125497;1099;104152;-80
2021/07/30 09:53:09;;;;;;;16.47;8.70;;;;;;;30.13;55.39;100180.25;126201;1099;104216;-80
2021/07/30 09:55:45;;;;;;;14.57;8.37;;;;;;;30.22;55.30;100176.20;126089;1099;104631;-81
2021/07/30 09:58:21;;;;;;;14.57;8.03;;;;;;;30.15;54.45;100180.16;125363;1099;104316;-79
2021/07/30 10:00:57;;;;;;;15.97;8.37;;;;;;;30.15;54.89;100178.33;125307;1099;104210;-82
2021/07/30 10:03:32;;;;;;;13.87;8.57;;;;;;;30.20;54.56;100172.68;126285;1099;104101;-82
2021/07/30 10:06:06;;;;;;;13.83;7.90;;;;;;;30.23;54.01;100167.11;126040;1099;104412;-80
2021/07/30 10:08:47;;;;;;;14.30;8.13;;;;;;;30.27;53.68;100164.17;126057;1099;104207;-82
2021/07/30 10:11:47;;;;;;;14.57;8.17;;;;;;;30.30;53.43;100155.89;125887;1099;104134;-81
2021/07/30 10:14:53;;;;;;;13.30;7.40;;;;;;;30.33;52.92;100154.00;125267;1099;104610;-81
2021/07/30 10:17:34;;;;;;;13.73;7.90;;;;;;;30.25;52.38;100162.52;125936;1099;104181;-79
2021/07/30 10:20:12;;;;;;;13.30;8.37;;;;;;;30.20;51.88;100151.94;125811;1099;104166;-83
2021/07/30 10:22:54;;;;;;;13.00;7.67;;;;;;;30.21;51.64;100161.78;126021;1099;104205;-81
2021/07/30 10:25:37;;;;;;;13.10;7.93;;;;;;;30.21;52.07;100155.50;126008;1099;104223;-80
2021/07/30 10:28:13;;;;;;;11.27;7.40;;;;;;;30.18;52.04;100150.25;126109;1099;104249;-78
2021/07/30 10:31:06;;;;;;;14.87;8.00;;;;;;;30.06;51.34;100152.64;126053;1099;104149;-82
2021/07/30 10:33:54;;;;;;;13.77;7.93;;;;;;;30.07;51.28;100148.09;126142;1099;106997;-79
2021/07/30 10:36:43;;;;;;;16.30;8.40;;;;;;;30.10;51.61;100142.53;126011;1098;104150;-83
2021/07/30 10:39:26;;;;;;;17.20;8.10;;;;;;;30.19;51.78;100149.30;126053;1099;104195;-80
2021/07/30 10:42:14;;;;;;;14.10;8.30;;;;;;;30.17;51.42;100138.56;125957;1099;104143;-79
2021/07/30 10:45:14;;;;;;;15.83;7.97;;;;;;;30.22;51.42;100138.33;126118;1099;105099;-78
2021/07/30 10:48:09;;;;;;;13.43;7.90;;;;;;;30.28;51.55;100132.59;126262;1097;104156;-81
2021/07/30 10:50:56;;;;;;;14.17;8.93;;;;;;;30.35;51.72;100125.88;126228;1099;104246;-79
2021/07/30 10:53:44;;;;;;;11.53;8.23;;;;;;;30.37;51.09;100118.58;126148;1097;104175;-79
2021/07/30 10:56:38;;;;;;;13.43;7.90;;;;;;;30.40;50.72;100128.37;126261;1099;104210;-79
2021/07/30 10:59:14;;;;;;;15.37;8.20;;;;;;;30.45;50.54;100129.03;126243;1098;104246;-79
2021/07/30 11:01:56;;;;;;;15.30;8.45;;;;;;;30.49;50.72;100118.91;126207;1099;104149;-79
2021/07/30 11:04:28;;;;;;;14.03;8.47;;;;;;;30.53;50.53;100113.25;126212;1099;104163;-79
2021/07/30 11:07:03;;;;;;;12.90;8.20;;;;;;;30.55;49.94;100119.45;126241;1099;104150;-78
2021/07/30 11:09:44;;;;;;;11.93;8.07;;;;;;;30.61;50.36;100105.58;126115;1099;104142;-78
2021/07/30 11:12:20;;;;;;;13.27;7.67;;;;;;;30.70;49.98;100114.16;126090;1099;104175;-79
2021/07/30 11:14:52;;;;;;;13.00;8.40;;;;;;;30.70;49.51;100109.64;126142;1099;106983;-78
2021/07/30 11:17:26;;;;;;;12.03;7.83;;;;;;;30.79;49.78;100116.36;126300;1099;104195;-78
2021/07/30 11:20:02;;;;;;;13.85;8.40;;;;;;;30.87;50.00;100114.13;126261;1099;104252;-80
2021/07/30 11:22:38;;;;;;;12.73;8.30;;;;;;;30.93;50.12;100105.67;126216;1099;104214;-79
2021/07/30 11:25:14;;;;;;;12.37;8.03;;;;;;;31.07;50.37;100096.80;126215;1099;117845;-80
2021/07/30 11:27:57;;;;;;;12.57;8.03;;;;;;;31.24;50.39;100103.09;126155;1099;104354;-77
2021/07/30 11:30:36;;;;;;;15.97;8.47;;;;;;;31.43;50.20;100103.80;126236;1097;104156;-79
2021/07/30 11:33:08;;;;;;;14.35;8.60;;;;;;;31.45;49.22;100101.00;126067;1099;104141;-79
2021/07/30 11:35:43;;;;;;;13.33;8.20;;;;;;;31.38;49.28;100092.33;126111;1099;104222;-78
2021/07/30 11:38:18;;;;;;;11.73;7.67;;;;;;;31.36;49.35;100097.83;126111;1099;104297;-80
2021/07/30 11:41:14;;;;;;;16.53;8.97;;;;;;;31.23;48.44;100101.33;125344;1099;104475;-80
2021/07/30 11:44:06;;;;;;;16.97;8.30;;;;;;;31.25;48.79;100104.84;125933;1099;104312;-82
2021/07/30 11:46:52;;;;;;;15.47;8.50;;;;;;;31.22;49.16;100099.60;126003;1099;104322;-80